Time;durP1;ratioP1;P1;durP2;ratioP2;P2;SDS_P1;SDS_P2;PMS_P1;PMS_P2;Temp;Humidity;BMP_temperature;BMP_pressure;BME280_temperature;BME280_humidity;BME280_pressure;Samples;Min_cycle;Max_cycle;Signal;HPM_P1;HPM_P2
2022/03/09 07:58:56;;;;;;;15.60;10.60;;;;;;;4.45;45.52;102086.03;5280040;28;20391;-71
2022/03/09 08:01:27;;;;;;;17.20;10.13;;;;;;;4.52;45.42;102084.09;5280314;28;20047;-71
2022/03/09 08:03:59;;;;;;;17.00;11.07;;;;;;;4.49;44.17;102090.03;5280522;28;20028;-71
2022/03/09 08:06:31;;;;;;;16.05;9.98;;;;;;;4.84;52.56;102091.53;5271623;28;20021;-71
2022/03/09 08:09:04;;;;;;;13.63;8.45;;;;;;;5.11;56.85;102087.53;5280692;28;20078;-77
2022/03/09 08:11:36;;;;;;;15.45;10.35;;;;;;;5.05;48.80;102093.91;5282876;28;20438;-83
2022/03/09 08:14:07;;;;;;;12.07;9.05;;;;;;;5.08;45.60;102098.13;5280542;28;20045;-78
2022/03/09 08:16:39;;;;;;;16.00;9.98;;;;;;;5.14;44.51;102102.72;5280468;28;20036;-76
2022/03/09 08:19:10;;;;;;;17.45;11.00;;;;;;;5.13;43.47;102109.31;5282308;28;20017;-88
2022/03/09 08:21:42;;;;;;;15.80;9.38;;;;;;;5.30;45.23;102113.19;5277990;28;20028;-73
2022/03/09 08:24:13;;;;;;;16.08;10.55;;;;;;;5.29;43.25;102110.66;5264149;28;20132;-82
2022/03/09 08:26:45;;;;;;;17.15;10.57;;;;;;;5.40;43.85;102115.47;5278073;28;20027;-84
2022/03/09 08:29:16;;;;;;;14.80;10.32;;;;;;;5.40;43.23;102118.22;5280867;28;20052;-84
2022/03/09 08:31:51;;;;;;;13.63;9.32;;;;;;;5.51;43.83;102114.72;5273444;28;20056;-88
2022/03/09 08:34:22;;;;;;;13.30;10.25;;;;;;;5.51;43.01;102111.97;5262636;28;20029;-88
2022/03/09 08:37:03;;;;;;;17.70;10.43;;;;;;;5.51;43.01;102106.47;5387889;23;20140;-89
2022/03/09 08:43:24;;;;;;;16.90;10.88;;;;;;;5.66;43.10;102112.47;5305435;22;20054;-87
2022/03/09 08:46:01;;;;;;;15.20;10.98;;;;;;;5.59;43.04;102122.69;5219433;28;20036;-87
2022/03/09 08:48:32;;;;;;;14.40;10.88;;;;;;;5.68;42.16;102115.00;5220290;28;20057;-89
2022/03/09 08:51:13;;;;;;;15.60;10.13;;;;;;;5.69;43.01;102118.59;5219671;28;20069;-87
2022/03/09 08:53:45;;;;;;;17.95;11.07;;;;;;;5.83;45.01;102120.16;5220973;28;20083;-82
2022/03/09 08:56:22;;;;;;;17.30;11.25;;;;;;;5.83;42.19;102117.41;5215972;28;20430;-81
2022/03/09 08:58:56;;;;;;;13.82;10.40;;;;;;;5.95;42.94;102117.50;5215746;28;20022;-80
2022/03/09 09:01:29;;;;;;;14.48;11.73;;;;;;;5.98;42.41;102126.19;5215605;28;20018;-82
2022/03/09 09:04:01;;;;;;;16.10;11.30;;;;;;;6.13;42.50;102122.19;5213835;28;20076;-82
2022/03/09 09:06:32;;;;;;;14.13;10.98;;;;;;;6.14;42.13;102123.91;5218654;28;20030;-85
2022/03/09 09:09:03;;;;;;;17.85;11.80;;;;;;;6.19;42.00;102126.81;5210844;28;20026;-84
2022/03/09 09:11:34;;;;;;;15.55;11.65;;;;;;;6.20;42.46;102120.22;5204694;28;20081;-81
2022/03/09 09:14:06;;;;;;;15.38;11.18;;;;;;;6.28;41.84;102119.91;5211053;28;20362;-83
2022/03/09 09:16:38;;;;;;;15.88;11.70;;;;;;;6.30;42.11;102117.75;5222975;28;20025;-79
2022/03/09 09:19:10;;;;;;;18.42;12.18;;;;;;;6.33;41.98;102114.53;5212564;28;20030;-84
2022/03/09 09:21:41;;;;;;;14.43;12.02;;;;;;;6.32;41.93;102110.13;5204135;28;20358;-84
2022/03/09 09:24:15;;;;;;;16.17;11.80;;;;;;;6.45;42.03;102109.09;5204524;28;20477;-84
2022/03/09 09:26:49;;;;;;;17.27;11.90;;;;;;;6.45;41.74;102111.88;5204775;28;20042;-83
2022/03/09 09:29:21;;;;;;;18.38;12.05;;;;;;;6.56;42.28;102116.59;5213320;28;20026;-72
2022/03/09 09:31:55;;;;;;;19.33;13.20;;;;;;;6.63;41.87;102111.00;5213557;28;20027;-80
2022/03/09 09:34:26;;;;;;;18.40;13.02;;;;;;;6.71;41.83;102110.66;5213781;28;20023;-80
2022/03/09 09:36:59;;;;;;;17.15;11.60;;;;;;;6.76;41.72;102110.81;5209441;28;20030;-80
2022/03/09 09:39:30;;;;;;;21.20;11.98;;;;;;;6.84;41.72;102106.88;5202657;28;20057;-83
2022/03/09 09:42:15;;;;;;;16.52;11.65;;;;;;;6.99;42.28;102111.97;5203621;28;20461;-84
2022/03/09 09:44:47;;;;;;;18.75;11.90;;;;;;;7.13;42.31;102118.97;5203608;28;20026;-74
2022/03/09 09:47:19;;;;;;;17.88;12.20;;;;;;;7.28;46.80;102118.53;5203174;28;20481;-72
2022/03/09 09:49:52;;;;;;;17.13;12.45;;;;;;;7.40;44.17;102123.00;5202168;28;20110;-73
2022/03/09 09:52:27;;;;;;;16.92;11.95;;;;;;;7.57;44.45;102117.63;5202177;28;20037;-74
2022/03/09 09:55:02;;;;;;;19.20;13.23;;;;;;;7.60;42.38;102116.31;5202636;28;20030;-77
2022/03/09 09:57:33;;;;;;;17.20;12.48;;;;;;;7.67;42.89;102122.56;5201660;28;20034;-74
2022/03/09 10:00:07;;;;;;;21.10;14.35;;;;;;;7.76;42.23;102126.63;5201932;28;20035;-74
2022/03/09 10:02:42;;;;;;;19.48;12.88;;;;;;;7.82;42.19;102120.16;5201518;28;20027;-75
2022/03/09 10:05:16;;;;;;;19.00;13.13;;;;;;;7.84;41.36;102117.16;5209173;28;20022;-75
2022/03/09 10:08:02;;;;;;;20.73;14.45;;;;;;;7.94;42.13;102113.78;5213109;28;20037;-79
2022/03/09 10:10:39;;;;;;;21.67;13.70;;;;;;;7.97;42.65;102111.38;5203062;28;20481;-79
2022/03/09 10:13:14;;;;;;;15.80;11.90;;;;;;;8.13;43.14;102115.34;5210079;28;20026;-80
2022/03/09 10:15:47;;;;;;;;;;;;;;;8.21;41.54;102105.84;5203424;28;20114;-78
2022/03/09 10:18:22;;;;;;;24.80;16.20;;;;;;;8.21;41.01;102106.66;5202215;28;19913;-77
2022/03/09 10:21:08;;;;;;;16.98;11.77;;;;;;;8.27;41.11;102111.22;5200617;28;20026;-75
2022/03/09 10:23:52;;;;;;;22.13;14.30;;;;;;;8.37;41.08;102105.06;5221657;28;20029;-75
2022/03/09 10:26:26;;;;;;;17.42;14.05;;;;;;;8.40;40.64;102101.00;5197484;28;20026;-74
2022/03/09 10:29:00;;;;;;;20.33;13.70;;;;;;;8.48;41.60;102095.91;5194369;28;20030;-75
2022/03/09 10:31:49;;;;;;;23.92;15.48;;;;;;;8.60;41.49;102097.81;5201193;28;20076;-79
2022/03/09 10:34:24;;;;;;;21.48;13.95;;;;;;;8.64;41.46;102094.31;5201506;28;20030;-79
2022/03/09 10:37:10;;;;;;;23.90;15.87;;;;;;;8.79;41.67;102092.91;5201732;28;20125;-79
2022/03/09 10:39:41;;;;;;;24.05;14.77;;;;;;;8.92;40.85;102093.47;5201884;28;20053;-81
2022/03/09 10:42:24;;;;;;;19.17;14.30;;;;;;;9.04;41.39;102096.16;5206687;28;20046;-79
2022/03/09 10:44:55;;;;;;;23.27;14.13;;;;;;;9.09;41.01;102098.19;5201439;28;20426;-78
2022/03/09 10:47:54;;;;;;;21.38;13.98;;;;;;;9.16;40.85;102095.28;5185799;28;20152;-81
2022/03/09 10:50:28;;;;;;;18.60;14.55;;;;;;;9.27;41.15;102097.94;5193972;28;20038;-81
2022/03/09 10:53:01;;;;;;;24.42;14.52;;;;;;;9.30;40.11;102093.84;5201602;28;20049;-79
2022/03/09 10:55:35;;;;;;;19.25;14.43;;;;;;;9.36;40.87;102095.63;5201427;28;20037;-80
2022/03/09 10:58:09;;;;;;;23.67;15.27;;;;;;;9.47;40.64;102093.88;5203311;28;20026;-80
2022/03/09 11:00:54;;;;;;;19.92;14.52;;;;;;;9.51;40.59;102090.34;5203421;28;20030;-80
2022/03/09 11:03:32;;;;;;;21.63;14.60;;;;;;;9.59;40.18;102083.53;5207517;28;20101;-81
2022/03/09 11:06:06;;;;;;;20.30;13.85;;;;;;;9.75;40.62;102092.91;5210381;28;20041;-80
2022/03/09 11:08:39;;;;;;;22.48;15.48;;;;;;;9.84;40.60;102094.16;5201441;28;20022;-81
2022/03/09 11:11:10;;;;;;;24.52;14.77;;;;;;;9.88;41.01;102092.56;5200168;28;20034;-75
2022/03/09 11:13:41;;;;;;;26.80;16.08;;;;;;;10.02;41.82;102096.66;5200629;28;20027;-74
2022/03/09 11:16:13;;;;;;;20.23;15.30;;;;;;;10.08;39.69;102092.00;5200117;28;20069;-80
2022/03/09 11:18:54;;;;;;;20.15;14.98;;;;;;;10.17;43.07;102084.91;5200760;28;20034;-80
2022/03/09 11:21:26;;;;;;;28.00;18.27;;;;;;;10.26;38.79;102079.78;5181194;28;20150;-75
2022/03/09 11:23:58;;;;;;;25.55;15.35;;;;;;;10.33;40.69;102074.06;5192355;28;20113;-75
2022/03/09 11:26:30;;;;;;;28.25;17.02;;;;;;;10.47;39.50;102080.06;5200055;28;20030;-75
2022/03/09 11:29:06;;;;;;;24.40;16.05;;;;;;;10.60;38.98;102074.13;5199702;28;20382;-75
2022/03/09 11:32:06;;;;;;;25.35;17.75;;;;;;;10.69;38.88;102075.34;5200513;28;20022;-78
2022/03/09 11:34:45;;;;;;;69.63;49.97;;;;;;;10.77;38.71;102072.09;5198069;28;20501;-81
2022/03/09 11:37:19;;;;;;;23.48;17.23;;;;;;;10.85;38.19;102074.38;5200217;28;20549;-80
2022/03/09 11:40:13;;;;;;;23.40;16.98;;;;;;;11.03;37.97;102072.34;5200760;28;20477;-80
2022/03/09 11:42:44;;;;;;;25.80;16.88;;;;;;;11.02;37.06;102065.97;5200719;28;20437;-79
2022/03/09 11:45:22;;;;;;;22.05;16.13;;;;;;;11.20;37.55;102069.47;5200111;28;20030;-79
2022/03/09 11:48:14;;;;;;;23.00;15.55;;;;;;;11.25;37.69;102072.28;5201230;28;20038;-79
2022/03/09 11:50:51;;;;;;;23.10;16.80;;;;;;;11.27;37.20;102058.94;5200118;28;20041;-79
2022/03/09 11:53:42;;;;;;;22.95;16.70;;;;;;;11.41;37.14;102056.56;5200983;28;20105;-79
2022/03/09 11:56:33;;;;;;;22.50;16.33;;;;;;;11.47;37.83;102059.09;5200731;28;20101;-80
2022/03/09 11:59:25;;;;;;;23.35;16.35;;;;;;;11.52;36.74;102052.75;5201088;28;20533;-78
2022/03/09 12:02:04;;;;;;;23.35;15.93;;;;;;;11.68;35.62;102054.56;5208199;28;20035;-78
2022/03/09 12:04:42;;;;;;;22.35;16.60;;;;;;;11.73;35.71;102053.72;5220354;28;20034;-78
2022/03/09 12:07:34;;;;;;;33.33;23.30;;;;;;;11.86;35.38;102053.31;5223383;28;20038;-76
2022/03/09 12:10:16;;;;;;;19.83;15.55;;;;;;;11.88;35.92;102042.72;5213071;28;20058;-77
2022/03/09 12:13:18;;;;;;;23.52;16.52;;;;;;;12.10;36.48;102047.31;5209927;28;20034;-80
2022/03/09 12:16:14;;;;;;;97.80;70.97;;;;;;;12.18;35.15;102046.78;5197735;28;20070;-75
2022/03/09 12:19:06;;;;;;;24.90;18.60;;;;;;;12.29;35.38;102039.31;5199956;28;20030;-78
2022/03/09 12:21:40;;;;;;;21.92;17.30;;;;;;;12.26;35.22;102045.44;5201481;28;20532;-77
2022/03/09 12:24:19;;;;;;;24.88;16.73;;;;;;;12.38;34.81;102054.38;5201615;28;20027;-78
2022/03/09 12:26:54;;;;;;;23.05;17.42;;;;;;;12.52;35.72;102052.75;5199596;28;20026;-76
2022/03/09 12:29:31;;;;;;;21.75;15.95;;;;;;;12.55;33.97;102049.44;5200019;28;20026;-78
2022/03/09 12:32:06;;;;;;;26.95;18.58;;;;;;;12.68;33.18;102044.44;5199474;28;20026;-78
2022/03/09 12:34:44;;;;;;;27.00;17.65;;;;;;;12.74;33.75;102040.56;5199600;28;20121;-78
2022/03/09 12:37:18;;;;;;;23.77;18.02;;;;;;;12.74;33.32;102037.78;5200534;28;20050;-79
2022/03/09 12:39:56;;;;;;;25.23;16.10;;;;;;;12.89;33.96;102029.47;5179138;28;20031;-78
2022/03/09 12:42:29;;;;;;;26.08;17.88;;;;;;;13.02;32.61;102034.47;5185660;28;20042;-76
2022/03/09 12:45:04;;;;;;;28.48;17.92;;;;;;;13.02;32.13;102039.22;5204682;28;20100;-79
2022/03/09 12:47:36;;;;;;;25.85;18.17;;;;;;;12.99;31.20;102029.47;5204597;28;20486;-79
2022/03/09 12:50:08;;;;;;;23.23;17.05;;;;;;;13.04;31.33;102037.84;5204724;28;20029;-79
2022/03/09 12:52:44;;;;;;;28.40;18.05;;;;;;;13.20;32.50;102024.75;5205497;28;20053;-80
2022/03/09 12:55:19;;;;;;;24.38;15.90;;;;;;;13.33;31.61;102025.34;5210741;28;20045;-80
2022/03/09 12:57:54;;;;;;;27.60;19.15;;;;;;;13.40;31.96;102029.50;5224230;28;20040;-80
2022/03/09 13:00:27;;;;;;;25.95;18.20;;;;;;;13.47;31.26;102018.91;5223522;28;20485;-79
2022/03/09 13:03:00;;;;;;;24.48;18.45;;;;;;;13.56;31.24;102026.69;5224472;28;20017;-78
2022/03/09 13:05:31;;;;;;;23.13;17.42;;;;;;;13.64;32.13;102017.75;5205892;28;20401;-79
2022/03/09 13:08:08;;;;;;;27.08;18.52;;;;;;;13.66;31.20;102023.88;5202530;28;20030;-80
2022/03/09 13:10:49;;;;;;;26.85;19.17;;;;;;;13.74;32.06;102017.72;5204081;28;20367;-80
2022/03/09 13:13:30;;;;;;;26.02;18.20;;;;;;;13.83;31.31;102020.75;5220461;28;20113;-80
2022/03/09 13:16:07;;;;;;;26.50;17.40;;;;;;;13.82;31.52;102014.34;5223051;28;20455;-77
2022/03/09 13:18:38;;;;;;;25.42;17.90;;;;;;;14.04;32.72;102010.41;5223614;28;20117;-85
2022/03/09 13:21:22;;;;;;;26.35;18.58;;;;;;;14.19;31.10;102015.06;5225502;28;20105;-86
2022/03/09 13:24:12;;;;;;;35.20;25.15;;;;;;;14.34;30.53;102014.97;5223559;28;20022;-81
2022/03/09 13:26:45;;;;;;;28.90;19.30;;;;;;;14.38;30.67;102004.94;5225048;28;20042;-81
2022/03/09 13:31:58;;;;;;;33.28;20.80;;;;;;;14.43;30.14;102012.44;5259767;22;20056;-77
2022/03/09 13:34:32;;;;;;;26.17;17.52;;;;;;;14.52;30.39;102005.13;5218227;28;20504;-77
2022/03/09 13:37:05;;;;;;;28.67;20.08;;;;;;;14.51;30.44;102000.66;5202849;28;20026;-78
2022/03/09 13:39:39;;;;;;;25.10;18.95;;;;;;;14.44;30.68;102003.75;5204316;28;20069;-79
2022/03/09 13:42:34;;;;;;;25.80;17.92;;;;;;;14.68;30.23;102009.53;5205469;28;20033;-77
2022/03/09 13:45:08;;;;;;;24.27;18.20;;;;;;;14.71;30.09;102016.50;5204104;28;20031;-80
2022/03/09 13:47:56;;;;;;;23.00;17.17;;;;;;;14.66;29.24;102011.78;5224829;28;20053;-88
2022/03/09 13:50:36;;;;;;;24.85;17.73;;;;;;;14.71;29.99;102014.53;5208501;28;20096;-80
2022/03/09 13:53:07;;;;;;;26.63;18.80;;;;;;;14.71;29.56;102011.75;5207072;28;20045;-81
2022/03/09 13:55:41;;;;;;;26.03;18.87;;;;;;;14.78;30.17;102014.22;5214060;28;20422;-82
2022/03/09 13:58:15;;;;;;;25.83;18.17;;;;;;;14.94;28.79;102018.56;5207805;28;20657;-80
2022/03/09 14:00:47;;;;;;;25.15;18.58;;;;;;;14.83;28.44;102013.31;5196417;28;20078;-84
2022/03/09 14:03:24;;;;;;;23.05;16.95;;;;;;;14.91;28.27;102015.53;5215793;28;20042;-86
2022/03/09 14:05:55;;;;;;;22.88;15.80;;;;;;;14.89;26.10;102014.97;5223654;28;20386;-85
2022/03/09 14:08:31;;;;;;;24.38;17.02;;;;;;;14.83;26.83;102016.13;5218461;28;20061;-84
2022/03/09 14:11:13;;;;;;;26.40;17.30;;;;;;;14.89;27.04;102015.81;5202840;28;20477;-80
2022/03/09 14:14:03;;;;;;;25.95;17.48;;;;;;;15.07;28.90;102014.28;5197147;28;20027;-77
2022/03/09 14:16:35;;;;;;;24.10;18.35;;;;;;;15.11;27.98;102022.88;5182648;28;20029;-80
2022/03/09 14:19:12;;;;;;;22.38;18.00;;;;;;;14.84;28.75;102017.81;5193223;28;20042;-81
2022/03/09 14:21:51;;;;;;;24.45;17.35;;;;;;;15.04;28.01;102012.06;5203393;28;20030;-78
2022/03/09 14:24:23;;;;;;;25.77;17.98;;;;;;;15.01;29.01;102009.88;5210842;28;20006;-85
2022/03/09 14:26:54;;;;;;;24.45;18.15;;;;;;;15.08;28.62;102001.13;5222989;28;20090;-83
2022/03/09 14:29:27;;;;;;;24.23;18.80;;;;;;;15.11;28.43;102000.53;5222533;28;20037;-79
2022/03/09 14:31:58;;;;;;;28.83;18.83;;;;;;;15.13;27.83;101993.53;5221679;28;20023;-86
2022/03/09 14:34:29;;;;;;;25.80;17.63;;;;;;;15.07;27.84;101999.47;5211839;28;20037;-84
2022/03/09 14:37:01;;;;;;;26.35;18.08;;;;;;;15.17;27.82;101989.03;5215837;28;20018;-85
2022/03/09 14:39:32;;;;;;;23.83;17.90;;;;;;;15.12;28.19;101986.28;5202761;28;20023;-84
2022/03/09 14:42:03;;;;;;;28.63;19.02;;;;;;;15.30;29.37;101992.28;5202596;28;20057;-87
2022/03/09 14:44:37;;;;;;;25.25;18.58;;;;;;;15.34;28.04;101982.16;5202422;28;20113;-79
2022/03/09 14:47:11;;;;;;;28.75;19.92;;;;;;;15.32;28.49;101978.84;5199204;28;20394;-81
2022/03/09 14:49:43;;;;;;;26.38;17.85;;;;;;;15.38;28.77;101983.25;5201014;28;20030;-80
2022/03/09 14:52:14;;;;;;;28.08;19.65;;;;;;;15.40;28.52;101979.03;5201489;28;20343;-79
2022/03/09 14:54:45;;;;;;;43.70;33.45;;;;;;;15.46;28.67;101981.78;5201254;28;20149;-80
2022/03/09 14:57:18;;;;;;;32.33;20.58;;;;;;;15.44;28.40;101982.06;5201374;28;20022;-80
2022/03/09 14:59:49;;;;;;;31.90;21.40;;;;;;;15.46;28.67;101965.84;5201258;28;20027;-79
2022/03/09 15:02:23;;;;;;;25.60;19.58;;;;;;;15.44;29.16;101970.88;5199620;28;20026;-77
2022/03/09 15:04:55;;;;;;;25.92;18.73;;;;;;;15.49;28.54;101970.00;5200889;28;20065;-75
2022/03/09 15:07:26;;;;;;;27.08;18.38;;;;;;;15.48;28.43;101977.56;5199632;28;20050;-77
2022/03/09 15:10:02;;;;;;;23.08;17.65;;;;;;;15.43;28.65;101972.84;5200843;28;20030;-78
2022/03/09 15:12:37;;;;;;;27.40;20.10;;;;;;;15.43;28.38;101980.41;5212470;28;20042;-78
2022/03/09 15:15:09;;;;;;;22.90;17.83;;;;;;;15.52;28.87;101983.38;5200522;28;20129;-79
2022/03/09 15:17:40;;;;;;;26.55;21.42;;;;;;;15.53;28.10;101985.06;5200954;28;20770;-79
2022/03/09 15:20:13;;;;;;;29.02;20.45;;;;;;;15.60;28.52;101986.38;5200836;28;20037;-78
2022/03/09 15:22:44;;;;;;;26.10;19.00;;;;;;;15.65;29.16;101983.53;5198535;28;20034;-75
2022/03/09 15:25:15;;;;;;;25.48;18.75;;;;;;;15.65;29.17;101977.94;5201092;28;20504;-77
2022/03/09 15:27:47;;;;;;;71.88;59.33;;;;;;;15.68;28.34;101979.31;5205024;28;20529;-78
2022/03/09 15:30:18;;;;;;;37.42;29.20;;;;;;;15.64;27.91;101976.25;5205344;28;20065;-75
2022/03/09 15:32:49;;;;;;;31.40;21.92;;;;;;;15.64;27.59;101978.22;5200943;28;20022;-79
2022/03/09 15:35:30;;;;;;;24.58;19.25;;;;;;;15.65;27.91;101983.53;5200024;28;20112;-80
2022/03/09 15:38:01;;;;;;;26.45;18.48;;;;;;;15.65;28.05;101979.91;5199654;28;20085;-80
2022/03/09 15:40:32;;;;;;;23.95;17.88;;;;;;;15.69;27.32;101978.19;5200947;28;20449;-80
2022/03/09 15:43:04;;;;;;;27.20;20.52;;;;;;;15.61;28.51;101976.84;5199120;28;20033;-78
2022/03/09 15:45:35;;;;;;;33.67;20.40;;;;;;;15.41;28.78;101977.06;5200761;28;20029;-77
2022/03/09 15:48:10;;;;;;;33.90;24.48;;;;;;;15.50;29.48;101972.50;5201085;28;20446;-87
2022/03/09 15:50:44;;;;;;;27.58;20.92;;;;;;;15.61;28.50;101981.63;5201967;28;20026;-80
2022/03/09 15:53:15;;;;;;;29.52;20.63;;;;;;;15.61;28.36;101979.66;5207993;28;20098;-82
2022/03/09 15:55:47;;;;;;;28.33;21.40;;;;;;;15.53;28.61;101979.47;5201789;28;20573;-80
2022/03/09 15:58:18;;;;;;;28.65;20.77;;;;;;;15.52;29.08;101973.06;5199507;28;20489;-77
2022/03/09 16:00:49;;;;;;;31.63;22.95;;;;;;;15.42;28.87;101973.16;5200567;28;20042;-79
2022/03/09 16:03:21;;;;;;;29.00;20.90;;;;;;;15.31;29.33;101971.59;5204001;28;20398;-76
2022/03/09 16:05:52;;;;;;;30.00;19.98;;;;;;;15.26;29.51;101969.66;5200256;28;20030;-72
2022/03/09 16:08:24;;;;;;;33.53;21.33;;;;;;;15.17;29.00;101966.69;5199623;28;20022;-75
2022/03/09 16:10:55;;;;;;;27.23;19.23;;;;;;;15.11;28.35;101967.88;5199577;28;20022;-75
2022/03/09 16:13:26;;;;;;;32.22;21.23;;;;;;;15.10;27.98;101982.13;5200035;28;20357;-75
2022/03/09 16:16:01;;;;;;;30.42;21.63;;;;;;;14.98;28.16;101972.16;5200407;28;20100;-76
2022/03/09 16:18:32;;;;;;;25.90;19.33;;;;;;;14.93;28.57;101968.56;5200307;28;20057;-79
2022/03/09 16:21:03;;;;;;;29.92;20.42;;;;;;;14.82;29.10;101961.41;5204756;28;20101;-79
2022/03/09 16:23:35;;;;;;;32.78;22.25;;;;;;;14.63;29.28;101973.28;5204163;28;20031;-80
2022/03/09 16:26:06;;;;;;;28.17;19.55;;;;;;;14.65;29.80;101971.03;5193173;28;20023;-80
2022/03/09 16:28:39;;;;;;;37.75;26.00;;;;;;;14.56;29.37;101973.59;5202764;28;20084;-78
2022/03/09 16:31:10;;;;;;;31.58;22.38;;;;;;;14.49;29.31;101975.00;5203458;28;20041;-78
2022/03/09 16:33:41;;;;;;;27.15;19.85;;;;;;;14.45;29.18;101977.53;5203331;28;20466;-80
2022/03/09 16:36:14;;;;;;;31.00;20.73;;;;;;;14.37;29.15;101978.16;5203790;28;20045;-79
2022/03/09 16:38:45;;;;;;;29.75;20.95;;;;;;;14.23;28.77;101980.72;5202827;28;20042;-79
2022/03/09 16:41:21;;;;;;;29.70;20.67;;;;;;;14.20;29.49;101977.69;5204554;28;20374;-71
2022/03/09 16:43:52;;;;;;;;;;;;;;;14.24;29.87;101981.56;5203340;28;20084;-71
2022/03/09 16:46:24;;;;;;;29.83;19.48;;;;;;;14.12;29.76;101991.09;5202473;28;20373;-77
2022/03/09 16:48:57;;;;;;;29.92;19.48;;;;;;;14.00;30.50;101992.56;5203797;28;20038;-76
2022/03/09 16:51:31;;;;;;;27.90;20.48;;;;;;;13.94;29.64;101988.13;5204030;28;20027;-77
2022/03/09 16:54:02;;;;;;;30.00;20.48;;;;;;;13.94;30.19;101985.34;5203846;28;20125;-78
2022/03/09 16:56:34;;;;;;;37.60;19.42;;;;;;;13.86;30.35;101986.75;5202481;28;20022;-77
2022/03/09 16:59:06;;;;;;;26.67;18.73;;;;;;;13.80;29.83;101985.91;5203073;28;20037;-72
2022/03/09 17:01:38;;;;;;;28.77;20.50;;;;;;;13.76;30.33;101987.63;5202546;28;20022;-72
2022/03/09 17:04:12;;;;;;;29.25;19.88;;;;;;;13.73;31.14;101988.19;5203453;28;20480;-76
2022/03/09 17:06:43;;;;;;;28.88;19.48;;;;;;;13.65;30.28;101997.13;5202213;28;20058;-79
2022/03/09 17:09:21;;;;;;;25.23;18.77;;;;;;;13.62;30.29;101994.91;5203516;28;20054;-78
2022/03/09 17:11:54;;;;;;;26.33;18.52;;;;;;;13.52;30.20;101997.72;5181612;28;20506;-79
2022/03/09 17:14:25;;;;;;;28.77;19.52;;;;;;;13.47;30.33;102001.34;5190870;28;20416;-78
2022/03/09 17:16:58;;;;;;;30.75;20.90;;;;;;;13.41;31.03;102000.50;5202635;28;20122;-78
2022/03/09 17:19:30;;;;;;;31.95;20.65;;;;;;;13.38;30.88;102009.44;5202960;28;20034;-78
2022/03/09 17:22:04;;;;;;;27.08;19.23;;;;;;;13.31;31.48;102019.19;5202546;28;20030;-78
2022/03/09 17:24:36;;;;;;;34.17;21.43;;;;;;;13.21;31.51;102017.22;5203221;28;20026;-78
2022/03/09 17:27:11;;;;;;;29.48;18.92;;;;;;;13.20;32.33;102018.34;5203631;28;20175;-78
2022/03/09 17:29:44;;;;;;;30.80;22.33;;;;;;;13.14;33.11;102025.00;5189475;28;20125;-78
